sensor_id;sensor_type;location;lat;lon;timestamp;P1;durP1;ratioP1;P2;durP2;ratioP2
16837;SDS011;19510;54.486;9.046;2023-06-22T14:29:28;1.27;;;1.00;;
16837;SDS011;19510;54.486;9.046;2023-06-22T14:31:54;1.50;;;1.10;;
16837;SDS011;19510;54.486;9.046;2023-06-22T14:34:20;1.83;;;0.85;;
16837;SDS011;19510;54.486;9.046;2023-06-22T14:36:46;3.00;;;1.10;;
16837;SDS011;19510;54.486;9.046;2023-06-22T14:39:11;1.20;;;0.90;;
16837;SDS011;19510;54.486;9.046;2023-06-22T14:41:37;3.88;;;1.17;;
16837;SDS011;19510;54.486;9.046;2023-06-22T14:44:03;2.08;;;1.30;;
16837;SDS011;19510;54.486;9.046;2023-06-22T14:46:28;1.15;;;1.02;;
16837;SDS011;19510;54.486;9.046;2023-06-22T14:48:54;1.45;;;1.20;;
16837;SDS011;19510;54.486;9.046;2023-06-22T14:51:20;1.88;;;1.40;;
16837;SDS011;19510;54.486;9.046;2023-06-22T14:53:46;2.58;;;1.27;;
16837;SDS011;19510;54.486;9.046;2023-06-22T14:56:12;2.60;;;1.20;;
16837;SDS011;19510;54.486;9.046;2023-06-22T14:58:42;3.22;;;1.45;;
16837;SDS011;19510;54.486;9.046;2023-06-22T15:01:11;3.08;;;2.08;;
16837;SDS011;19510;54.486;9.046;2023-06-22T15:03:37;2.28;;;1.45;;
16837;SDS011;19510;54.486;9.046;2023-06-22T15:06:03;1.40;;;1.23;;
16837;SDS011;19510;54.486;9.046;2023-06-22T15:08:30;1.80;;;1.20;;
16837;SDS011;19510;54.486;9.046;2023-06-22T15:10:58;2.97;;;1.25;;
16837;SDS011;19510;54.486;9.046;2023-06-22T15:13:25;2.00;;;1.17;;
16837;SDS011;19510;54.486;9.046;2023-06-22T15:15:51;2.08;;;1.20;;
16837;SDS011;19510;54.486;9.046;2023-06-22T15:18:18;1.77;;;1.20;;
16837;SDS011;19510;54.486;9.046;2023-06-22T15:20:43;2.90;;;1.60;;
16837;SDS011;19510;54.486;9.046;2023-06-22T15:23:11;1.73;;;1.25;;
16837;SDS011;19510;54.486;9.046;2023-06-22T15:25:37;1.70;;;1.40;;
16837;SDS011;19510;54.486;9.046;2023-06-22T15:28:03;1.42;;;1.30;;
16837;SDS011;19510;54.486;9.046;2023-06-22T15:30:28;1.92;;;1.33;;
16837;SDS011;19510;54.486;9.046;2023-06-22T15:32:55;5.05;;;1.42;;
16837;SDS011;19510;54.486;9.046;2023-06-22T15:35:21;2.45;;;1.55;;
16837;SDS011;19510;54.486;9.046;2023-06-22T15:37:47;1.48;;;1.27;;
16837;SDS011;19510;54.486;9.046;2023-06-22T15:40:13;1.48;;;1.23;;
16837;SDS011;19510;54.486;9.046;2023-06-22T15:42:39;9.02;;;3.92;;
16837;SDS011;19510;54.486;9.046;2023-06-22T15:45:05;8.85;;;2.90;;
16837;SDS011;19510;54.486;9.046;2023-06-22T15:47:31;5.32;;;2.90;;
16837;SDS011;19510;54.486;9.046;2023-06-22T15:49:57;3.83;;;2.10;;
16837;SDS011;19510;54.486;9.046;2023-06-22T15:52:22;2.83;;;1.90;;
16837;SDS011;19510;54.486;9.046;2023-06-22T15:54:48;2.55;;;1.55;;
16837;SDS011;19510;54.486;9.046;2023-06-22T15:57:20;5.18;;;2.10;;
16837;SDS011;19510;54.486;9.046;2023-06-22T15:59:47;2.70;;;1.80;;
16837;SDS011;19510;54.486;9.046;2023-06-22T16:02:13;11.18;;;2.50;;
16837;SDS011;19510;54.486;9.046;2023-06-22T16:04:38;3.03;;;1.80;;
16837;SDS011;19510;54.486;9.046;2023-06-22T16:07:04;2.67;;;1.80;;
16837;SDS011;19510;54.486;9.046;2023-06-22T16:09:30;2.78;;;1.55;;
16837;SDS011;19510;54.486;9.046;2023-06-22T16:11:56;4.47;;;1.85;;
16837;SDS011;19510;54.486;9.046;2023-06-22T16:14:22;2.42;;;1.83;;
16837;SDS011;19510;54.486;9.046;2023-06-22T16:16:48;3.15;;;1.70;;
16837;SDS011;19510;54.486;9.046;2023-06-22T16:19:14;2.05;;;1.73;;
16837;SDS011;19510;54.486;9.046;2023-06-22T16:21:43;1.75;;;1.65;;
16837;SDS011;19510;54.486;9.046;2023-06-22T16:24:08;2.55;;;1.67;;
16837;SDS011;19510;54.486;9.046;2023-06-22T16:26:38;3.58;;;1.90;;
16837;SDS011;19510;54.486;9.046;2023-06-22T16:29:05;3.05;;;1.70;;
16837;SDS011;19510;54.486;9.046;2023-06-22T16:31:31;3.38;;;1.40;;
16837;SDS011;19510;54.486;9.046;2023-06-22T16:33:59;2.60;;;1.85;;
16837;SDS011;19510;54.486;9.046;2023-06-22T16:36:25;2.50;;;1.90;;
16837;SDS011;19510;54.486;9.046;2023-06-22T16:38:50;2.63;;;1.55;;
16837;SDS011;19510;54.486;9.046;2023-06-22T16:41:16;2.78;;;1.70;;
16837;SDS011;19510;54.486;9.046;2023-06-22T16:43:43;3.10;;;1.95;;
16837;SDS011;19510;54.486;9.046;2023-06-22T16:46:08;3.63;;;1.70;;
16837;SDS011;19510;54.486;9.046;2023-06-22T16:48:37;3.42;;;2.03;;
16837;SDS011;19510;54.486;9.046;2023-06-22T16:51:03;2.88;;;1.88;;
16837;SDS011;19510;54.486;9.046;2023-06-22T16:53:34;4.95;;;3.15;;
16837;SDS011;19510;54.486;9.046;2023-06-22T16:56:02;5.85;;;2.35;;
16837;SDS011;19510;54.486;9.046;2023-06-22T16:58:28;2.67;;;2.20;;
16837;SDS011;19510;54.486;9.046;2023-06-22T17:00:55;2.97;;;1.60;;
16837;SDS011;19510;54.486;9.046;2023-06-22T17:03:26;3.10;;;2.00;;
16837;SDS011;19510;54.486;9.046;2023-06-22T17:05:58;2.55;;;2.00;;
16837;SDS011;19510;54.486;9.046;2023-06-22T17:08:28;3.75;;;1.98;;
16837;SDS011;19510;54.486;9.046;2023-06-22T17:10:58;3.92;;;2.97;;
16837;SDS011;19510;54.486;9.046;2023-06-22T17:13:24;2.55;;;1.98;;
16837;SDS011;19510;54.486;9.046;2023-06-22T17:15:56;2.78;;;2.30;;
16837;SDS011;19510;54.486;9.046;2023-06-22T17:18:25;3.25;;;1.70;;
16837;SDS011;19510;54.486;9.046;2023-06-22T17:20:51;3.30;;;2.15;;
16837;SDS011;19510;54.486;9.046;2023-06-22T17:23:17;3.10;;;2.10;;
16837;SDS011;19510;54.486;9.046;2023-06-22T17:25:43;4.45;;;1.83;;
16837;SDS011;19510;54.486;9.046;2023-06-22T17:28:12;3.20;;;1.95;;
16837;SDS011;19510;54.486;9.046;2023-06-22T17:30:40;4.85;;;2.08;;
16837;SDS011;19510;54.486;9.046;2023-06-22T17:33:09;2.45;;;1.90;;
16837;SDS011;19510;54.486;9.046;2023-06-22T17:35:48;9.63;;;2.28;;
16837;SDS011;19510;54.486;9.046;2023-06-22T17:38:20;4.57;;;1.75;;
16837;SDS011;19510;54.486;9.046;2023-06-22T17:40:47;3.42;;;1.95;;
16837;SDS011;19510;54.486;9.046;2023-06-22T17:43:13;4.50;;;1.85;;
16837;SDS011;19510;54.486;9.046;2023-06-22T17:45:43;4.00;;;1.70;;
16837;SDS011;19510;54.486;9.046;2023-06-22T17:48:09;5.57;;;1.90;;
16837;SDS011;19510;54.486;9.046;2023-06-22T17:50:39;3.20;;;2.05;;
16837;SDS011;19510;54.486;9.046;2023-06-22T17:53:12;3.97;;;2.33;;
16837;SDS011;19510;54.486;9.046;2023-06-22T17:55:38;4.68;;;2.28;;
16837;SDS011;19510;54.486;9.046;2023-06-22T17:58:04;3.55;;;2.20;;
16837;SDS011;19510;54.486;9.046;2023-06-22T18:00:30;3.28;;;2.10;;
16837;SDS011;19510;54.486;9.046;2023-06-22T18:02:57;3.60;;;2.20;;
16837;SDS011;19510;54.486;9.046;2023-06-22T18:05:29;3.35;;;1.77;;
16837;SDS011;19510;54.486;9.046;2023-06-22T18:08:05;2.67;;;2.03;;
16837;SDS011;19510;54.486;9.046;2023-06-22T18:10:37;4.07;;;1.60;;
16837;SDS011;19510;54.486;9.046;2023-06-22T18:13:07;2.63;;;1.60;;
16837;SDS011;19510;54.486;9.046;2023-06-22T18:15:33;2.38;;;1.55;;
16837;SDS011;19510;54.486;9.046;2023-06-22T18:18:02;1.83;;;1.63;;
16837;SDS011;19510;54.486;9.046;2023-06-22T18:20:30;1.30;;;1.20;;
16837;SDS011;19510;54.486;9.046;2023-06-22T18:22:57;2.40;;;1.50;;
16837;SDS011;19510;54.486;9.046;2023-06-22T18:25:30;3.45;;;1.55;;
16837;SDS011;19510;54.486;9.046;2023-06-22T18:27:58;5.07;;;3.90;;
16837;SDS011;19510;54.486;9.046;2023-06-22T18:30:28;6.75;;;2.80;;
16837;SDS011;19510;54.486;9.046;2023-06-22T18:32:54;4.85;;;2.85;;
16837;SDS011;19510;54.486;9.046;2023-06-22T18:35:21;2.38;;;1.70;;
16837;SDS011;19510;54.486;9.046;2023-06-22T18:37:48;3.70;;;1.70;;
16837;SDS011;19510;54.486;9.046;2023-06-22T18:40:20;2.47;;;1.65;;
16837;SDS011;19510;54.486;9.046;2023-06-22T18:42:47;2.25;;;1.70;;
16837;SDS011;19510;54.486;9.046;2023-06-22T18:45:21;3.35;;;1.90;;
16837;SDS011;19510;54.486;9.046;2023-06-22T18:47:57;5.25;;;1.58;;
16837;SDS011;19510;54.486;9.046;2023-06-22T18:50:42;2.47;;;1.73;;
16837;SDS011;19510;54.486;9.046;2023-06-22T18:53:25;2.53;;;1.50;;
16837;SDS011;19510;54.486;9.046;2023-06-22T18:56:14;2.10;;;1.50;;
16837;SDS011;19510;54.486;9.046;2023-06-22T18:58:40;3.47;;;1.55;;
16837;SDS011;19510;54.486;9.046;2023-06-22T19:01:22;2.00;;;1.50;;
16837;SDS011;19510;54.486;9.046;2023-06-22T19:03:51;3.72;;;1.70;;
16837;SDS011;19510;54.486;9.046;2023-06-22T19:09:21;5.15;;;3.50;;
16837;SDS011;19510;54.486;9.046;2023-06-22T19:11:47;5.15;;;3.40;;
16837;SDS011;19510;54.486;9.046;2023-06-22T19:14:20;3.28;;;1.90;;
16837;SDS011;19510;54.486;9.046;2023-06-22T19:16:47;2.08;;;1.40;;
16837;SDS011;19510;54.486;9.046;2023-06-22T19:19:21;3.67;;;2.00;;
16837;SDS011;19510;54.486;9.046;2023-06-22T19:21:57;3.00;;;2.22;;
16837;SDS011;19510;54.486;9.046;2023-06-22T19:24:46;2.33;;;1.92;;
16837;SDS011;19510;54.486;9.046;2023-06-22T19:27:14;5.07;;;2.25;;
16837;SDS011;19510;54.486;9.046;2023-06-22T19:29:41;3.92;;;2.50;;
16837;SDS011;19510;54.486;9.046;2023-06-22T19:32:08;3.13;;;2.20;;
16837;SDS011;19510;54.486;9.046;2023-06-22T19:34:34;3.03;;;2.00;;
16837;SDS011;19510;54.486;9.046;2023-06-22T19:37:01;5.53;;;2.50;;
16837;SDS011;19510;54.486;9.046;2023-06-22T19:39:34;6.10;;;2.67;;
16837;SDS011;19510;54.486;9.046;2023-06-22T19:42:01;4.47;;;2.60;;
16837;SDS011;19510;54.486;9.046;2023-06-22T19:44:30;4.47;;;2.80;;
16837;SDS011;19510;54.486;9.046;2023-06-22T19:46:55;3.47;;;2.20;;
16837;SDS011;19510;54.486;9.046;2023-06-22T19:49:21;3.17;;;2.33;;
16837;SDS011;19510;54.486;9.046;2023-06-22T19:51:47;4.30;;;2.28;;
16837;SDS011;19510;54.486;9.046;2023-06-22T19:54:13;4.05;;;2.08;;
16837;SDS011;19510;54.486;9.046;2023-06-22T19:56:41;2.58;;;2.30;;
16837;SDS011;19510;54.486;9.046;2023-06-22T19:59:09;4.32;;;2.22;;
16837;SDS011;19510;54.486;9.046;2023-06-22T20:01:39;4.75;;;2.40;;
16837;SDS011;19510;54.486;9.046;2023-06-22T20:04:06;3.05;;;2.15;;
16837;SDS011;19510;54.486;9.046;2023-06-22T20:06:34;3.55;;;2.30;;
16837;SDS011;19510;54.486;9.046;2023-06-22T20:09:01;4.00;;;2.30;;
16837;SDS011;19510;54.486;9.046;2023-06-22T20:11:30;4.25;;;2.15;;
16837;SDS011;19510;54.486;9.046;2023-06-22T20:13:59;3.03;;;2.08;;
16837;SDS011;19510;54.486;9.046;2023-06-22T20:16:26;8.05;;;2.40;;
16837;SDS011;19510;54.486;9.046;2023-06-22T20:21:33;3.65;;;2.42;;
16837;SDS011;19510;54.486;9.046;2023-06-22T20:24:06;5.78;;;2.70;;
16837;SDS011;19510;54.486;9.046;2023-06-22T20:26:45;4.13;;;2.20;;
16837;SDS011;19510;54.486;9.046;2023-06-22T20:29:24;5.15;;;2.15;;
16837;SDS011;19510;54.486;9.046;2023-06-22T20:34:39;4.07;;;2.70;;
16837;SDS011;19510;54.486;9.046;2023-06-22T20:37:11;2.80;;;2.35;;
16837;SDS011;19510;54.486;9.046;2023-06-22T20:39:37;5.70;;;2.90;;
16837;SDS011;19510;54.486;9.046;2023-06-22T20:42:04;3.50;;;2.60;;
16837;SDS011;19510;54.486;9.046;2023-06-22T20:44:30;4.60;;;2.53;;
16837;SDS011;19510;54.486;9.046;2023-06-22T20:46:59;5.93;;;2.88;;
16837;SDS011;19510;54.486;9.046;2023-06-22T20:49:28;5.55;;;3.33;;
16837;SDS011;19510;54.486;9.046;2023-06-22T20:51:56;5.60;;;2.90;;
16837;SDS011;19510;54.486;9.046;2023-06-22T20:54:22;3.63;;;2.70;;
16837;SDS011;19510;54.486;9.046;2023-06-22T20:56:48;4.85;;;3.10;;
16837;SDS011;19510;54.486;9.046;2023-06-22T20:59:14;6.93;;;3.10;;
16837;SDS011;19510;54.486;9.046;2023-06-22T21:01:39;4.80;;;3.00;;
16837;SDS011;19510;54.486;9.046;2023-06-22T21:04:11;4.07;;;2.60;;
16837;SDS011;19510;54.486;9.046;2023-06-22T21:06:37;4.68;;;2.80;;
16837;SDS011;19510;54.486;9.046;2023-06-22T21:09:02;6.03;;;2.58;;
16837;SDS011;19510;54.486;9.046;2023-06-22T21:11:28;5.15;;;4.03;;
16837;SDS011;19510;54.486;9.046;2023-06-22T21:13:54;6.00;;;4.15;;
16837;SDS011;19510;54.486;9.046;2023-06-22T21:16:22;5.47;;;3.38;;
16837;SDS011;19510;54.486;9.046;2023-06-22T21:18:48;3.85;;;2.38;;
16837;SDS011;19510;54.486;9.046;2023-06-22T21:21:16;5.53;;;3.03;;
16837;SDS011;19510;54.486;9.046;2023-06-22T21:23:41;3.90;;;2.83;;
16837;SDS011;19510;54.486;9.046;2023-06-22T21:26:07;4.47;;;2.83;;
16837;SDS011;19510;54.486;9.046;2023-06-22T21:28:33;4.43;;;2.85;;
16837;SDS011;19510;54.486;9.046;2023-06-22T21:30:59;5.65;;;2.83;;
